National Geographic Sea Lion — WUR9646 — position and weather

sailwx.info

Track history (hours):
 
Tides and Currents Weather Stations Pressure Air Temp Water Temp Dewpoint Dewpoint Depression Visibility Wind Speed Wind Dir Waves Ship Positions

National Geographic Sea Lion

Owner: Lindblad Expeditions LLC, SEATTLE, WA. More information available from US FCC via Universal Licensing System and Coast Guard Vessel Documentation Center.

Last reported at 2018-Oct-29 16:27 UTC. Time now 2018-Dec-11 06:27 UTC.
Position N 31°48' W 116°38'.
Warning: this ship's position is 42 days out of date.

Length 45 m; draft 2.4 m.

Type: Passenger vessel. MMSI: 366396000.

Date/timePositionNaut miles runAvg speedWind from/ knotsBaromVisibWave heightAir tempDewpointWater temp
2018-Oct-29 16:27N 31°48' W 116°38'23 7.5
2018-Oct-29 13:23N 32°02' W 116°60'410.4
2018-Oct-29 13:03N 32°05' W 117°02'0 9.8
2018-Oct-29 13:00N 32°05' W 117°03'510.3
2018-Oct-29 12:30N 32°09' W 117°07'510.4
2018-Oct-29 12:03N 32°12' W 117°11'110.4
2018-Oct-29 12:00N 32°12' W 117°11'510.6
2018-Oct-29 11:30N 32°16' W 117°16'510.5
2018-Oct-29 11:03N 32°19' W 117°20'110.6
2018-Oct-29 10:58N 32°20' W 117°21'510.6
2018-Oct-29 10:30N 32°23' W 117°25'510.5
2018-Oct-29 10:03N 32°26' W 117°30'110.2
2018-Oct-29 10:00N 32°27' W 117°30'510.4
2018-Oct-29 09:30N 32°30' W 117°34'510.0
2018-Oct-29 09:03N 32°33' W 117°38'110.2
2018-Oct-29 09:00N 32°34' W 117°39'510.0
2018-Oct-29 08:30N 32°37' W 117°43'410.0
2018-Oct-29 08:03N 32°41' W 117°46'110.1
2018-Oct-29 08:00N 32°41' W 117°46'510.0
2018-Oct-29 07:30N 32°46' W 117°49'4 9.8
2018-Oct-29 07:03N 32°50' W 117°51'010.0
2018-Oct-29 07:00N 32°50' W 117°51'510.0
2018-Oct-29 06:30N 32°55' W 117°53'410.0
2018-Oct-29 06:03N 32°59' W 117°56'110.1
2018-Oct-29 06:00N 32°59' W 117°56'5 9.7
2018-Oct-29 05:30N 33°04' W 117°58'4 9.8
2018-Oct-29 05:03N 33°08' W 118°00'0 9.7
2018-Oct-29 05:00N 33°08' W 118°01'5 9.7
2018-Oct-29 04:30N 33°13' W 118°03'4 9.7
2018-Oct-29 04:03N 33°16' W 118°06'0 9.6
2018-Oct-29 04:00N 33°17' W 118°06'5 9.7
2018-Oct-29 03:30N 33°21' W 118°08'510.2
2018-Oct-29 03:03N 33°26' W 118°10'110.1
2018-Oct-29 03:00N 33°26' W 118°10'510.1
2018-Oct-29 02:30N 33°31' W 118°12'510.1
2018-Oct-29 02:03N 33°35' W 118°14'110.3
2018-Oct-29 02:00N 33°36' W 118°14'510.9
2018-Oct-29 01:30N 33°41' W 118°14'3 6.3
2018-Oct-29 01:03N 33°43' W 118°16'0 0.0
2018-Oct-29 01:00N 33°43' W 118°16'0 0.0
2018-Oct-29 00:29N 33°43' W 118°16'0 0.0
2018-Oct-28 23:59N 33°43' W 118°16'0 0.0
2018-Oct-28 23:26N 33°43' W 118°16'0 0.0
2018-Oct-28 23:02N 33°43' W 118°16'0 0.1
2018-Oct-28 22:59N 33°43' W 118°16'0 0.0
2018-Oct-28 22:26N 33°43' W 118°16'0 0.0
2018-Oct-28 22:02N 33°43' W 118°16'0 0.1
2018-Oct-28 21:59N 33°43' W 118°16'0 0.0
2018-Oct-28 21:29N 33°43' W 118°16'0 0.0
2018-Oct-28 21:02N 33°43' W 118°16'0 0.1
2018-Oct-28 20:59N 33°43' W 118°16'0 0.0
2018-Oct-28 20:29N 33°43' W 118°16'0 0.0
2018-Oct-28 20:02N 33°43' W 118°16'0 0.1
2018-Oct-28 19:59N 33°43' W 118°16'0 0.0
2018-Oct-28 19:29N 33°43' W 118°16'0 0.0
2018-Oct-28 19:02N 33°43' W 118°16'0 0.1
2018-Oct-28 18:59N 33°43' W 118°16'0 0.0
2018-Oct-28 18:29N 33°43' W 118°16'0 0.0
2018-Oct-28 18:02N 33°43' W 118°16'0 0.1
2018-Oct-28 17:59N 33°43' W 118°16'0 0.0
2018-Oct-28 17:29N 33°43' W 118°16'0 0.0
2018-Oct-28 17:02N 33°43' W 118°16'0 0.1
2018-Oct-28 16:59N 33°43' W 118°16'0 0.0
2018-Oct-28 16:29N 33°43' W 118°16'0 0.0
2018-Oct-28 16:02N 33°43' W 118°16'0 0.0
2018-Oct-28 15:59N 33°43' W 118°16'0 0.0
2018-Oct-28 15:29N 33°43' W 118°16'0 0.0
2018-Oct-28 14:59N 33°43' W 118°16'0 0.1
2018-Oct-28 14:03N 33°43' W 118°17'3 5.7
2018-Oct-28 13:30N 33°41' W 118°14'3 7.0
2018-Oct-28 13:03N 33°38' W 118°14'0 8.2
2018-Oct-28 13:00N 33°38' W 118°15'4 7.4
2018-Oct-28 12:30N 33°35' W 118°18'3 7.6
2018-Oct-28 12:03N 33°36' W 118°22'0 8.1
2018-Oct-28 12:00N 33°36' W 118°23'4 8.0
2018-Oct-28 11:30N 33°38' W 118°27'4 7.8
2018-Oct-28 11:03N 33°40' W 118°30'0 7.0
2018-Oct-28 11:00N 33°40' W 118°31'4 7.3
2018-Oct-28 10:30N 33°42' W 118°35'3 6.6
2018-Oct-28 10:03N 33°39' W 118°35'0 8.6
2018-Oct-28 10:00N 33°39' W 118°35'4 8.5
2018-Oct-28 09:30N 33°36' W 118°31'4 8.4
2018-Oct-28 09:03N 33°34' W 118°27'0 8.4
2018-Oct-28 09:00N 33°34' W 118°27'4 8.2
2018-Oct-28 08:30N 33°31' W 118°23'4 8.2
2018-Oct-28 08:03N 33°29' W 118°19'0 8.1
2018-Oct-28 08:01N 33°28' W 118°19'4 7.9
2018-Oct-28 07:30N 33°24' W 118°19'3 7.7
2018-Oct-28 07:03N 33°21' W 118°19'0 0.5
2018-Oct-28 07:00N 33°21' W 118°19'0 0.0
2018-Oct-28 06:30N 33°21' W 118°19'0 0.0
2018-Oct-28 06:03N 33°21' W 118°19'0 0.0
2018-Oct-28 06:00N 33°21' W 118°19'0 0.0
2018-Oct-28 05:30N 33°21' W 118°19'0 0.1
2018-Oct-28 05:03N 33°21' W 118°19'0 0.5
2018-Oct-28 04:57N 33°21' W 118°19'0 0.1
2018-Oct-28 04:24N 33°21' W 118°19'0 0.0
2018-Oct-28 04:00N 33°21' W 118°19'0 0.0
2018-Oct-28 03:30N 33°21' W 118°19'0 0.0
2018-Oct-28 03:03N 33°21' W 118°19'0 0.1
2018-Oct-28 03:00N 33°21' W 118°19'0 0.0
2018-Oct-28 02:30N 33°21' W 118°19'0 0.0
2018-Oct-28 02:03N 33°21' W 118°19'0 0.1
2018-Oct-28 02:00N 33°21' W 118°19'0 0.1
2018-Oct-28 01:30N 33°21' W 118°19'0 0.1
2018-Oct-28 01:03N 33°21' W 118°19'0 0.1
2018-Oct-28 01:00N 33°21' W 118°19'0 0.1
2018-Oct-28 00:30N 33°21' W 118°19'0 0.1
2018-Oct-28 00:03N 33°21' W 118°19'0 0.1
2018-Oct-28 00:00N 33°21' W 118°19'0 0.0
2018-Oct-27 23:30N 33°21' W 118°19'0 0.1
2018-Oct-27 23:03N 33°21' W 118°19'0 0.1
2018-Oct-27 23:00N 33°21' W 118°19'0 0.0
2018-Oct-27 22:30N 33°21' W 118°19'0 0.1
2018-Oct-27 22:00N 33°21' W 118°19'1 2.5
2018-Oct-27 21:30N 33°20' W 118°18'4 8.3
2018-Oct-27 21:03N 33°17' W 118°21'111.4
2018-Oct-27 21:00N 33°17' W 118°21'510.7
2018-Oct-27 20:30N 33°19' W 118°28'4 0.6
2018-Oct-27 13:38N 33°23' W 118°29'0 2.0
2018-Oct-27 13:23N 33°23' W 118°30'2 6.5
2018-Oct-27 13:01N 33°22' W 118°32'0 6.5
2018-Oct-27 13:00N 33°22' W 118°33'2 4.9
2018-Oct-27 12:30N 33°24' W 118°35'3 6.5
2018-Oct-27 12:03N 33°26' W 118°37'0 7.8
2018-Oct-27 12:00N 33°26' W 118°37'4 7.7
2018-Oct-27 11:30N 33°28' W 118°41'4 8.3
2018-Oct-27 11:03N 33°30' W 118°45'0 8.7
2018-Oct-27 11:00N 33°31' W 118°45'4 8.7
2018-Oct-27 10:30N 33°34' W 118°49'4 8.7
2018-Oct-27 10:03N 33°37' W 118°51'0 9.1
2018-Oct-27 10:00N 33°38' W 118°51'4 8.3
2018-Oct-27 09:30N 33°42' W 118°52'4 8.8
2018-Oct-27 09:03N 33°43' W 118°57'0 8.5
2018-Oct-27 09:00N 33°43' W 118°57'4 8.6
2018-Oct-27 08:30N 33°45' W 119°02'4 8.7
2018-Oct-27 08:03N 33°46' W 119°07'0 8.5
2018-Oct-27 08:00N 33°46' W 119°07'4 8.5
2018-Oct-27 07:30N 33°48' W 119°12'4 8.3
2018-Oct-27 07:03N 33°49' W 119°16'0 8.5
2018-Oct-27 07:00N 33°49' W 119°17'4 8.4
2018-Oct-27 06:30N 33°50' W 119°21'4 8.2
2018-Oct-27 06:03N 33°52' W 119°26'0 7.5
2018-Oct-27 06:00N 33°52' W 119°26'4 8.0
2018-Oct-27 05:30N 33°53' W 119°31'1 1.2
2018-Oct-27 05:04N 33°53' W 119°30'0 7.7
2018-Oct-27 05:00N 33°52' W 119°30'4 8.2
2018-Oct-27 04:30N 33°51' W 119°25'4 7.8
2018-Oct-27 04:03N 33°49' W 119°21'0 6.6
2018-Oct-27 04:00N 33°49' W 119°21'4 8.0
2018-Oct-27 03:30N 33°47' W 119°17'1 2.3
2018-Oct-27 03:03N 33°47' W 119°16'0 8.4
2018-Oct-27 03:00N 33°47' W 119°16'4 8.1
2018-Oct-27 02:30N 33°48' W 119°21'3 7.7
2018-Oct-27 02:03N 33°49' W 119°25'0 7.4
2018-Oct-27 02:00N 33°49' W 119°25'4 8.0
2018-Oct-27 01:30N 33°51' W 119°30'4 8.4
2018-Oct-27 01:03N 33°52' W 119°34'0 8.7
2018-Oct-27 01:00N 33°52' W 119°35'4 8.6
2018-Oct-27 00:30N 33°53' W 119°39'4 8.3
2018-Oct-27 00:03N 33°54' W 119°44'0 7.6
2018-Oct-27 00:00N 33°54' W 119°44'4 8.2
2018-Oct-26 23:30N 33°55' W 119°49'4 8.4
2018-Oct-26 23:03N 33°57' W 119°53'0 7.7
2018-Oct-26 23:00N 33°58' W 119°53'4 7.0
2018-Oct-26 22:30N 33°59' W 119°57'3 7.9
2018-Oct-26 22:04N 33°60' W 120°01'0 7.2
2018-Oct-26 22:00N 33°60' W 120°02'1 2.3
2018-Oct-26 21:27N 34°01' W 120°03'0 0.0
2018-Oct-26 20:39N 34°01' W 120°03'0 0.0
2018-Oct-26 20:09N 34°01' W 120°03'0 0.0
2018-Oct-26 19:57N 34°01' W 120°03'0 0.0
2018-Oct-26 19:27N 34°01' W 120°03'0 0.0
2018-Oct-26 19:03N 34°01' W 120°03'0 0.1
2018-Oct-26 18:57N 34°01' W 120°03'0 0.0
2018-Oct-26 18:27N 34°01' W 120°03'0 0.0
2018-Oct-26 18:03N 34°01' W 120°03'0 0.1
2018-Oct-26 17:57N 34°01' W 120°03'0 0.0
2018-Oct-26 17:30N 34°01' W 120°03'0 0.0
2018-Oct-26 17:03N 34°01' W 120°03'0 0.0
2018-Oct-26 16:57N 34°01' W 120°03'0 0.0
2018-Oct-26 16:30N 34°01' W 120°03'0 0.0
2018-Oct-26 16:03N 34°01' W 120°03'0 0.0
2018-Oct-26 15:57N 34°01' W 120°03'0 0.0
2018-Oct-26 15:30N 34°01' W 120°03'0 0.0
2018-Oct-26 15:03N 34°01' W 120°03'0 0.0
2018-Oct-26 15:00N 34°01' W 120°03'0 0.6
2018-Oct-26 14:29N 34°01' W 120°02'0 0.0
2018-Oct-26 13:53N 34°01' W 120°02'0 0.0
2018-Oct-26 13:26N 34°01' W 120°02'0 0.0
2018-Oct-26 13:02N 34°01' W 120°02'0 0.0
2018-Oct-26 12:59N 34°01' W 120°02'0 0.0
2018-Oct-26 12:29N 34°01' W 120°02'0 0.0
2018-Oct-26 12:02N 34°01' W 120°02'0 0.0
2018-Oct-26 11:59N 34°01' W 120°02'0 0.0
2018-Oct-26 11:29N 34°01' W 120°02'0 0.0
2018-Oct-26 11:02N 34°01' W 120°02'0 0.1
2018-Oct-26 10:59N 34°01' W 120°02'0 0.0
2018-Oct-26 10:29N 34°01' W 120°02'0 0.0
2018-Oct-26 09:59N 34°01' W 120°02'0 0.0
2018-Oct-26 09:23N 34°01' W 120°02'0 0.0
2018-Oct-26 08:56N 34°01' W 120°02'0 0.0
2018-Oct-26 08:23N 34°01' W 120°02'0 0.0
2018-Oct-26 07:59N 34°01' W 120°02'0 0.0
2018-Oct-26 07:26N 34°01' W 120°02'0 0.0
2018-Oct-26 06:59N 34°01' W 120°02'0 0.0
2018-Oct-26 06:29N 34°01' W 120°02'0 0.0
2018-Oct-26 06:02N 34°01' W 120°02'0 0.0
2018-Oct-26 05:56N 34°01' W 120°02'0 0.1
2018-Oct-26 05:18N 34°01' W 120°02'1 5.0
2018-Oct-26 05:03N 34°01' W 120°01'1 8.4
2018-Oct-26 04:58N 34°02' W 120°01'3 6.0
2018-Oct-26 04:29N 34°04' W 119°60'4 9.5
2018-Oct-26 04:03N 34°06' W 119°55'1 9.6
2018-Oct-26 03:58N 34°06' W 119°54'5 9.9
2018-Oct-26 03:30N 34°06' W 119°49'510.0
2018-Oct-26 03:03N 34°06' W 119°43'010.3
2018-Oct-26 03:00N 34°06' W 119°42'5 9.8
2018-Oct-26 02:31N 34°04' W 119°37'4 6.8
2018-Oct-26 02:00N 34°03' W 119°33'0 0.1
2018-Oct-26 01:30N 34°03' W 119°33'0 0.1
2018-Oct-26 00:54N 34°03' W 119°33'0 0.0
2018-Oct-26 00:30N 34°03' W 119°33'0 0.0
2018-Oct-26 00:03N 34°03' W 119°33'0 0.0
2018-Oct-25 23:54N 34°03' W 119°33'0 0.0
2018-Oct-25 23:24N 34°03' W 119°33'0 0.0
2018-Oct-25 23:00N 34°03' W 119°33'0 0.0
2018-Oct-25 22:27N 34°03' W 119°33'0 0.0
2018-Oct-25 22:00N 34°03' W 119°33'0 0.0
2018-Oct-25 21:30N 34°03' W 119°33'0 0.0
2018-Oct-25 21:00N 34°03' W 119°33'0 0.3
2018-Oct-25 20:30N 34°03' W 119°33'4 8.8
2018-Oct-25 20:03N 34°04' W 119°28'0 8.9
2018-Oct-25 20:00N 34°04' W 119°28'5 9.2
2018-Oct-25 19:31N 34°02' W 119°23'1 2.8
2018-Oct-25 19:02N 34°01' W 119°22'0 0.0
2018-Oct-25 18:56N 34°01' W 119°22'0 0.0
2018-Oct-25 18:29N 34°01' W 119°22'0 0.0
2018-Oct-25 17:59N 34°01' W 119°22'0 0.0
2018-Oct-25 17:29N 34°01' W 119°22'0 0.1
2018-Oct-25 17:02N 34°01' W 119°22'0 0.0
2018-Oct-25 16:44N 34°01' W 119°22'0 0.2
2018-Oct-25 16:29N 34°01' W 119°22'0 0.0
2018-Oct-25 16:02N 34°01' W 119°22'0 0.5
2018-Oct-25 15:56N 34°01' W 119°22'0 0.0
2018-Oct-25 15:26N 34°01' W 119°22'0 0.0
2018-Oct-25 14:59N 34°01' W 119°22'1 1.1
2018-Oct-25 14:30N 34°01' W 119°22'2 3.3
2018-Oct-25 14:00N 34°01' W 119°20'3 5.4
2018-Oct-25 13:30N 33°59' W 119°22'3 7.7
2018-Oct-25 13:03N 33°56' W 119°25'0 8.2
2018-Oct-25 13:00N 33°56' W 119°25'4 7.8
2018-Oct-25 12:29N 33°53' W 119°28'3 8.0
2018-Oct-25 12:03N 33°51' W 119°31'0 7.9
2018-Oct-25 12:00N 33°50' W 119°31'0 0.8
2018-Oct-25 11:30N 33°50' W 119°31'3 7.3
2018-Oct-25 11:03N 33°52' W 119°28'0 8.2
2018-Oct-25 11:00N 33°52' W 119°27'3 6.9
2018-Oct-25 10:30N 33°54' W 119°24'3 7.1
2018-Oct-25 10:03N 33°56' W 119°21'0 7.2
2018-Oct-25 10:00N 33°56' W 119°20'4 7.3
2018-Oct-25 09:30N 33°58' W 119°17'3 7.4
2018-Oct-25 09:03N 34°00' W 119°13'0 7.1
2018-Oct-25 09:00N 34°00' W 119°13'4 7.1
2018-Oct-25 08:30N 34°02' W 119°09'3 6.6
2018-Oct-25 08:03N 34°01' W 119°06'0 7.2
2018-Oct-25 08:00N 34°01' W 119°06'4 7.3
2018-Oct-25 07:30N 33°59' W 119°02'4 7.2
2018-Oct-25 07:01N 33°57' W 118°58'0 7.0
2018-Oct-25 07:00N 33°57' W 118°58'3 7.1
2018-Oct-25 06:30N 33°56' W 118°55'3 7.2
2018-Oct-25 06:03N 33°54' W 118°51'0 7.9
2018-Oct-25 06:00N 33°54' W 118°51'4 7.5
2018-Oct-25 05:30N 33°52' W 118°47'3 7.2
2018-Oct-25 05:03N 33°50' W 118°44'0 7.1
2018-Oct-25 05:00N 33°50' W 118°43'4 7.2
2018-Oct-25 04:30N 33°48' W 118°40'3 7.3
2018-Oct-25 04:03N 33°46' W 118°36'0 7.4
2018-Oct-25 04:00N 33°46' W 118°36'4 7.5
2018-Oct-25 03:30N 33°44' W 118°32'3 7.5
2018-Oct-25 03:03N 33°43' W 118°28'0 8.0
2018-Oct-25 03:00N 33°42' W 118°28'4 7.4
2018-Oct-25 02:30N 33°41' W 118°24'3 7.0
2018-Oct-25 02:03N 33°39' W 118°21'0 7.1
2018-Oct-25 02:00N 33°39' W 118°20'4 7.1
2018-Oct-25 01:30N 33°41' W 118°17'2 5.3
2018-Oct-25 01:03N 33°43' W 118°16'0 7.9
2018-Oct-25 01:00N 33°43' W 118°16'1 0.9
2018-Oct-25 00:28N 33°43' W 118°16'0 0.0
2018-Oct-25 00:01N 33°43' W 118°16'0 0.1
2018-Oct-24 23:58N 33°43' W 118°16'0 0.0
2018-Oct-24 23:25N 33°43' W 118°16'  
2018-Oct-22 18:35N 33°43' W 118°16'0 0.1
2018-Oct-22 18:29N 33°43' W 118°16'0 0.0
2018-Oct-22 18:02N 33°43' W 118°16'0 0.0
2018-Oct-22 17:59N 33°43' W 118°16'0 0.0
2018-Oct-22 17:29N 33°43' W 118°16'0 0.0
2018-Oct-22 17:02N 33°43' W 118°16'0 0.1
2018-Oct-22 16:59N 33°43' W 118°16'0 0.0
2018-Oct-22 16:29N 33°43' W 118°16'0 0.0
2018-Oct-22 16:02N 33°43' W 118°16'0 0.0
2018-Oct-22 15:59N 33°43' W 118°16'0 0.0
2018-Oct-22 15:29N 33°43' W 118°16'0 0.0
2018-Oct-22 14:59N 33°43' W 118°16'0 0.0
2018-Oct-22 14:29N 33°43' W 118°16'0 0.0
2018-Oct-22 13:29N 33°43' W 118°16'0 0.0
2018-Oct-22 13:02N 33°43' W 118°16'0 0.0
2018-Oct-22 12:59N 33°43' W 118°16'0 0.0
2018-Oct-22 12:29N 33°43' W 118°16'0 0.0
2018-Oct-22 12:02N 33°43' W 118°16'0 0.0
2018-Oct-22 11:59N 33°43' W 118°16'0 0.0
2018-Oct-22 11:29N 33°43' W 118°16'0 0.0
2018-Oct-22 10:59N 33°43' W 118°16'0 0.0
2018-Oct-22 10:29N 33°43' W 118°16'0 0.0
2018-Oct-22 10:02N 33°43' W 118°16'0 0.0
2018-Oct-22 09:59N 33°43' W 118°16'0 0.0
2018-Oct-22 09:29N 33°43' W 118°16'0 0.0
2018-Oct-22 09:02N 33°43' W 118°16'0 0.0
2018-Oct-22 08:59N 33°43' W 118°16'0 0.0
2018-Oct-22 08:29N 33°43' W 118°16'0 0.0
2018-Oct-22 08:02N 33°43' W 118°16'0 0.1
2018-Oct-22 07:59N 33°43' W 118°16'0 0.0
2018-Oct-22 07:29N 33°43' W 118°16'0 0.0
2018-Oct-22 07:02N 33°43' W 118°16'0 0.1
2018-Oct-22 06:59N 33°43' W 118°16'0 0.0
2018-Oct-22 06:29N 33°43' W 118°16'0 0.0
2018-Oct-22 06:02N 33°43' W 118°16'0 0.0
2018-Oct-22 05:59N 33°43' W 118°16'0 0.0
2018-Oct-22 05:29N 33°43' W 118°16'0 0.0
2018-Oct-22 05:02N 33°43' W 118°16'0 0.0
2018-Oct-22 04:59N 33°43' W 118°16'0 0.0
2018-Oct-22 04:29N 33°43' W 118°16'0 0.0
2018-Oct-22 04:02N 33°43' W 118°16'0 0.0
2018-Oct-22 03:59N 33°43' W 118°16'0 0.0
2018-Oct-22 03:29N 33°43' W 118°16'0 0.0
2018-Oct-22 03:02N 33°43' W 118°16'0 0.0
2018-Oct-22 02:59N 33°43' W 118°16'0 0.0
2018-Oct-22 02:29N 33°43' W 118°16'0 0.0
2018-Oct-22 01:59N 33°43' W 118°16'0 0.0
2018-Oct-22 01:29N 33°43' W 118°16'0 0.0
2018-Oct-22 01:02N 33°43' W 118°16'0 0.0
2018-Oct-22 00:59N 33°43' W 118°16'0 0.0
2018-Oct-22 00:29N 33°43' W 118°16'0 0.0
2018-Oct-22 00:02N 33°43' W 118°16'0 0.0
2018-Oct-21 23:59N 33°43' W 118°16'0 0.0
2018-Oct-21 23:29N 33°43' W 118°16'0 0.0
2018-Oct-21 23:02N 33°43' W 118°16'0 0.1
2018-Oct-21 22:59N 33°43' W 118°16'0 0.0
2018-Oct-21 22:29N 33°43' W 118°16'0 0.0
2018-Oct-21 22:02N 33°43' W 118°16'0 0.1
2018-Oct-21 21:56N 33°43' W 118°16'0 0.0
2018-Oct-21 21:02N 33°43' W 118°16'0 0.0
2018-Oct-21 20:29N 33°43' W 118°16'0 0.0
2018-Oct-21 20:02N 33°43' W 118°16'0 0.0
2018-Oct-21 19:59N 33°43' W 118°16'0 0.0
2018-Oct-21 19:29N 33°43' W 118°16'0 0.0
2018-Oct-21 19:02N 33°43' W 118°16'0 0.1
2018-Oct-21 18:59N 33°43' W 118°16'0 0.0
2018-Oct-21 18:29N 33°43' W 118°16'0 0.0
2018-Oct-21 18:02N 33°43' W 118°16'0 0.0
2018-Oct-21 17:59N 33°43' W 118°16'0 0.0
2018-Oct-21 17:29N 33°43' W 118°16'0 0.0
2018-Oct-21 17:02N 33°43' W 118°16'0 0.0
2018-Oct-21 16:59N 33°43' W 118°16'0 0.0
2018-Oct-21 16:29N 33°43' W 118°16'0 0.0
2018-Oct-21 16:02N 33°43' W 118°16'0 0.0
2018-Oct-21 15:59N 33°43' W 118°16'0 0.0
2018-Oct-21 15:29N 33°43' W 118°16'0 0.0
2018-Oct-21 15:02N 33°43' W 118°16'0 0.0
2018-Oct-21 14:59N 33°43' W 118°16'0 0.0
2018-Oct-21 14:29N 33°43' W 118°16'0 0.3
2018-Oct-21 14:00N 33°43' W 118°16'3 6.5
2018-Oct-21 13:31N 33°41' W 118°14'3 7.0
2018-Oct-21 13:04N 33°38' W 118°15'0 8.5
2018-Oct-21 13:01N 33°37' W 118°15'4 7.3
2018-Oct-21 12:31N 33°35' W 118°19'3 7.6
2018-Oct-21 12:04N 33°36' W 118°23'0 8.0
2018-Oct-21 12:01N 33°36' W 118°23'4 8.0
2018-Oct-21 11:30N 33°39' W 118°27'4 8.0
2018-Oct-21 11:03N 33°40' W 118°31'0 7.3
2018-Oct-21 11:01N 33°41' W 118°31'3 6.4
2018-Oct-21 10:30N 33°41' W 118°35'3 6.0
2018-Oct-21 10:04N 33°39' W 118°35'0 8.4
2018-Oct-21 10:01N 33°38' W 118°34'4 7.9
2018-Oct-21 09:31N 33°36' W 118°30'4 8.1
2018-Oct-21 09:04N 33°34' W 118°27'0 7.8
2018-Oct-21 09:01N 33°33' W 118°27'4 8.0
2018-Oct-21 08:31N 33°31' W 118°23'4 8.1
2018-Oct-21 08:04N 33°29' W 118°19'0 8.4
2018-Oct-21 08:01N 33°28' W 118°19'4 8.1
2018-Oct-21 07:31N 33°24' W 118°19'3 7.6
2018-Oct-21 07:03N 33°21' W 118°19'0 0.1
2018-Oct-21 07:01N 33°21' W 118°19'0 0.0
2018-Oct-21 06:22N 33°21' W 118°19'0 0.1
2018-Oct-21 06:01N 33°21' W 118°19'0 0.0
2018-Oct-21 05:58N 33°21' W 118°19'0 0.0
2018-Oct-21 05:28N 33°21' W 118°19'0 0.1
2018-Oct-21 05:01N 33°21' W 118°19'0 0.1
2018-Oct-21 04:58N 33°21' W 118°19'0 0.0
2018-Oct-21 04:25N 33°21' W 118°19'0 0.2
2018-Oct-21 04:01N 33°21' W 118°19'0 0.1
2018-Oct-21 03:55N 33°21' W 118°19'0 0.0
2018-Oct-21 03:25N 33°21' W 118°19'0 0.0
2018-Oct-21 03:01N 33°21' W 118°19'0 0.2
2018-Oct-21 02:55N 33°21' W 118°19'0 0.1
2018-Oct-21 02:28N 33°21' W 118°19'0 0.0
2018-Oct-21 01:58N 33°21' W 118°19'0 0.0
2018-Oct-21 01:28N 33°21' W 118°19'0 0.0
2018-Oct-21 00:58N 33°21' W 118°19'0 0.1
2018-Oct-21 00:16N 33°21' W 118°19'0 0.0
2018-Oct-20 23:58N 33°21' W 118°19'0 0.0
2018-Oct-20 23:28N 33°21' W 118°19'0 0.0
2018-Oct-20 22:58N 33°21' W 118°19'0 0.0
2018-Oct-20 22:22N 33°21' W 118°19'0 0.0
2018-Oct-20 22:01N 33°21' W 118°19'0 0.0
2018-Oct-20 22:00N 33°21' W 118°19'3 6.6
2018-Oct-20 21:30N 33°18' W 118°19'510.6
2018-Oct-20 21:03N 33°16' W 118°24'110.6
2018-Oct-20 20:59N 33°16' W 118°25'510.3
2018-Oct-20 20:30N 33°19' W 118°29'4 0.6
2018-Oct-20 13:21N 33°23' W 118°30'2 4.6
2018-Oct-20 12:52N 33°24' W 118°32'4 5.0
2018-Oct-20 12:10N 33°25' W 118°36'5 6.6
2018-Oct-20 11:28N 33°26' W 118°41'4 7.8
2018-Oct-20 10:58N 33°29' W 118°45'4 7.7
2018-Oct-20 10:30N 33°32' W 118°48'3 7.6
2018-Oct-20 10:03N 33°34' W 118°51'0 7.4
2018-Oct-20 10:00N 33°34' W 118°51'4 7.7
2018-Oct-20 09:30N 33°37' W 118°55'4 8.7
2018-Oct-20 09:03N 33°40' W 118°57'0 8.9
2018-Oct-20 09:00N 33°41' W 118°57'4 8.5
2018-Oct-20 08:30N 33°45' W 118°59'3 7.1
2018-Oct-20 08:03N 33°47' W 119°01'0 7.1
2018-Oct-20 08:00N 33°48' W 119°01'4 7.6
2018-Oct-20 07:30N 33°50' W 119°05'3 7.3
2018-Oct-20 07:03N 33°51' W 119°08'0 7.2
2018-Oct-20 07:00N 33°51' W 119°09'4 7.4
2018-Oct-20 06:30N 33°52' W 119°13'3 7.3
2018-Oct-20 06:03N 33°52' W 119°17'0 7.1
2018-Oct-20 06:00N 33°52' W 119°18'4 7.4
2018-Oct-20 05:30N 33°53' W 119°22'3 7.5
2018-Oct-20 05:03N 33°53' W 119°26'0 7.1
2018-Oct-20 05:00N 33°53' W 119°26'4 7.4
2018-Oct-20 04:30N 33°54' W 119°31'3 6.4
2018-Oct-20 04:03N 33°54' W 119°27'0 8.2
2018-Oct-20 04:00N 33°55' W 119°27'4 7.3
2018-Oct-20 03:27N 33°56' W 119°22'3 7.4
2018-Oct-20 03:03N 33°56' W 119°19'0 7.1
2018-Oct-20 03:00N 33°56' W 119°18'4 7.2
2018-Oct-20 02:30N 33°58' W 119°14'2 4.2
2018-Oct-20 02:03N 33°60' W 119°15'0 8.1
2018-Oct-20 02:00N 33°60' W 119°15'4 8.1
2018-Oct-20 01:30N 34°02' W 119°20'510.5
2018-Oct-20 01:03N 34°03' W 119°25'110.3
2018-Oct-20 01:00N 34°03' W 119°26'5 9.0
2018-Oct-20 00:30N 34°05' W 119°31'510.1
2018-Oct-20 00:01N 34°05' W 119°37'0 9.0
2018-Oct-20 00:00N 34°05' W 119°37'510.1
2018-Oct-19 23:30N 34°05' W 119°43'6 9.6
2018-Oct-19 22:52N 34°05' W 119°50'2 4.7
2018-Oct-19 22:31N 34°05' W 119°52'4 8.2
2018-Oct-19 22:03N 34°05' W 119°57'0 9.6
2018-Oct-19 22:00N 34°05' W 119°57'5 8.8
2018-Oct-19 21:25N 34°01' W 120°01'1 1.4
2018-Oct-19 20:35N 34°00' W 120°03'0 0.0
2018-Oct-19 20:26N 34°00' W 120°03'0 0.0
2018-Oct-19 19:05N 34°00' W 120°03'0 0.0
2018-Oct-19 18:53N 34°00' W 120°03'0 0.0
2018-Oct-19 18:05N 34°00' W 120°03'0 0.0
2018-Oct-19 17:44N 34°00' W 120°03'  
Track history (hours):
 
Tides and Currents Weather Stations Pressure Air Temp Water Temp Dewpoint Dewpoint Depression Visibility Wind Speed Wind Dir Waves Ship Positions

National Geographic Sea Lion

Owner: Lindblad Expeditions LLC, SEATTLE, WA. More information available from US FCC via Universal Licensing System and Coast Guard Vessel Documentation Center.

Last reported at 2018-Oct-29 16:27 UTC. Time now 2018-Dec-11 06:27 UTC.
Position N 31°48' W 116°38'.
Warning: this ship's position is 42 days out of date.

Length 45 m; draft 2.4 m.

Type: Passenger vessel. MMSI: 366396000.

Date/timePositionNaut miles runAvg speedWind from/ knotsBaromVisibWave heightAir tempDewpointWater temp
2018-Oct-29 16:27N 31°48' W 116°38'23 7.5
2018-Oct-29 13:23N 32°02' W 116°60'410.4
2018-Oct-29 13:03N 32°05' W 117°02'0 9.8
2018-Oct-29 13:00N 32°05' W 117°03'510.3
2018-Oct-29 12:30N 32°09' W 117°07'510.4
2018-Oct-29 12:03N 32°12' W 117°11'110.4
2018-Oct-29 12:00N 32°12' W 117°11'510.6
2018-Oct-29 11:30N 32°16' W 117°16'510.5
2018-Oct-29 11:03N 32°19' W 117°20'110.6
2018-Oct-29 10:58N 32°20' W 117°21'510.6
2018-Oct-29 10:30N 32°23' W 117°25'510.5
2018-Oct-29 10:03N 32°26' W 117°30'110.2
2018-Oct-29 10:00N 32°27' W 117°30'510.4
2018-Oct-29 09:30N 32°30' W 117°34'510.0
2018-Oct-29 09:03N 32°33' W 117°38'110.2
2018-Oct-29 09:00N 32°34' W 117°39'510.0
2018-Oct-29 08:30N 32°37' W 117°43'410.0
2018-Oct-29 08:03N 32°41' W 117°46'110.1
2018-Oct-29 08:00N 32°41' W 117°46'510.0
2018-Oct-29 07:30N 32°46' W 117°49'4 9.8
2018-Oct-29 07:03N 32°50' W 117°51'010.0
2018-Oct-29 07:00N 32°50' W 117°51'510.0
2018-Oct-29 06:30N 32°55' W 117°53'410.0
2018-Oct-29 06:03N 32°59' W 117°56'110.1
2018-Oct-29 06:00N 32°59' W 117°56'5 9.7
2018-Oct-29 05:30N 33°04' W 117°58'4 9.8
2018-Oct-29 05:03N 33°08' W 118°00'0 9.7
2018-Oct-29 05:00N 33°08' W 118°01'5 9.7
2018-Oct-29 04:30N 33°13' W 118°03'4 9.7
2018-Oct-29 04:03N 33°16' W 118°06'0 9.6
2018-Oct-29 04:00N 33°17' W 118°06'5 9.7
2018-Oct-29 03:30N 33°21' W 118°08'510.2
2018-Oct-29 03:03N 33°26' W 118°10'110.1
2018-Oct-29 03:00N 33°26' W 118°10'510.1
2018-Oct-29 02:30N 33°31' W 118°12'510.1
2018-Oct-29 02:03N 33°35' W 118°14'110.3
2018-Oct-29 02:00N 33°36' W 118°14'510.9
2018-Oct-29 01:30N 33°41' W 118°14'3 6.3
2018-Oct-29 01:03N 33°43' W 118°16'0 0.0
2018-Oct-29 01:00N 33°43' W 118°16'0 0.0
2018-Oct-29 00:29N 33°43' W 118°16'0 0.0
2018-Oct-28 23:59N 33°43' W 118°16'0 0.0
2018-Oct-28 23:26N 33°43' W 118°16'0 0.0
2018-Oct-28 23:02N 33°43' W 118°16'0 0.1
2018-Oct-28 22:59N 33°43' W 118°16'0 0.0
2018-Oct-28 22:26N 33°43' W 118°16'0 0.0
2018-Oct-28 22:02N 33°43' W 118°16'0 0.1
2018-Oct-28 21:59N 33°43' W 118°16'0 0.0
2018-Oct-28 21:29N 33°43' W 118°16'0 0.0
2018-Oct-28 21:02N 33°43' W 118°16'0 0.1
2018-Oct-28 20:59N 33°43' W 118°16'0 0.0
2018-Oct-28 20:29N 33°43' W 118°16'0 0.0
2018-Oct-28 20:02N 33°43' W 118°16'0 0.1
2018-Oct-28 19:59N 33°43' W 118°16'0 0.0
2018-Oct-28 19:29N 33°43' W 118°16'0 0.0
2018-Oct-28 19:02N 33°43' W 118°16'0 0.1
2018-Oct-28 18:59N 33°43' W 118°16'0 0.0
2018-Oct-28 18:29N 33°43' W 118°16'0 0.0
2018-Oct-28 18:02N 33°43' W 118°16'0 0.1
2018-Oct-28 17:59N 33°43' W 118°16'0 0.0
2018-Oct-28 17:29N 33°43' W 118°16'0 0.0
2018-Oct-28 17:02N 33°43' W 118°16'0 0.1
2018-Oct-28 16:59N 33°43' W 118°16'0 0.0
2018-Oct-28 16:29N 33°43' W 118°16'0 0.0
2018-Oct-28 16:02N 33°43' W 118°16'0 0.0
2018-Oct-28 15:59N 33°43' W 118°16'0 0.0
2018-Oct-28 15:29N 33°43' W 118°16'0 0.0
2018-Oct-28 14:59N 33°43' W 118°16'0 0.1
2018-Oct-28 14:03N 33°43' W 118°17'3 5.7
2018-Oct-28 13:30N 33°41' W 118°14'3 7.0
2018-Oct-28 13:03N 33°38' W 118°14'0 8.2
2018-Oct-28 13:00N 33°38' W 118°15'4 7.4
2018-Oct-28 12:30N 33°35' W 118°18'3 7.6
2018-Oct-28 12:03N 33°36' W 118°22'0 8.1
2018-Oct-28 12:00N 33°36' W 118°23'4 8.0
2018-Oct-28 11:30N 33°38' W 118°27'4 7.8
2018-Oct-28 11:03N 33°40' W 118°30'0 7.0
2018-Oct-28 11:00N 33°40' W 118°31'4 7.3
2018-Oct-28 10:30N 33°42' W 118°35'3 6.6
2018-Oct-28 10:03N 33°39' W 118°35'0 8.6
2018-Oct-28 10:00N 33°39' W 118°35'4 8.5
2018-Oct-28 09:30N 33°36' W 118°31'4 8.4
2018-Oct-28 09:03N 33°34' W 118°27'0 8.4
2018-Oct-28 09:00N 33°34' W 118°27'4 8.2
2018-Oct-28 08:30N 33°31' W 118°23'4 8.2
2018-Oct-28 08:03N 33°29' W 118°19'0 8.1
2018-Oct-28 08:01N 33°28' W 118°19'4 7.9
2018-Oct-28 07:30N 33°24' W 118°19'3 7.7
2018-Oct-28 07:03N 33°21' W 118°19'0 0.5
2018-Oct-28 07:00N 33°21' W 118°19'0 0.0
2018-Oct-28 06:30N 33°21' W 118°19'0 0.0
2018-Oct-28 06:03N 33°21' W 118°19'0 0.0
2018-Oct-28 06:00N 33°21' W 118°19'0 0.0
2018-Oct-28 05:30N 33°21' W 118°19'0 0.1
2018-Oct-28 05:03N 33°21' W 118°19'0 0.5
2018-Oct-28 04:57N 33°21' W 118°19'0 0.1
2018-Oct-28 04:24N 33°21' W 118°19'0 0.0
2018-Oct-28 04:00N 33°21' W 118°19'0 0.0
2018-Oct-28 03:30N 33°21' W 118°19'0 0.0
2018-Oct-28 03:03N 33°21' W 118°19'0 0.1
2018-Oct-28 03:00N 33°21' W 118°19'0 0.0
2018-Oct-28 02:30N 33°21' W 118°19'0 0.0
2018-Oct-28 02:03N 33°21' W 118°19'0 0.1
2018-Oct-28 02:00N 33°21' W 118°19'0 0.1
2018-Oct-28 01:30N 33°21' W 118°19'0 0.1
2018-Oct-28 01:03N 33°21' W 118°19'0 0.1
2018-Oct-28 01:00N 33°21' W 118°19'0 0.1
2018-Oct-28 00:30N 33°21' W 118°19'0 0.1
2018-Oct-28 00:03N 33°21' W 118°19'0 0.1
2018-Oct-28 00:00N 33°21' W 118°19'0 0.0
2018-Oct-27 23:30N 33°21' W 118°19'0 0.1
2018-Oct-27 23:03N 33°21' W 118°19'0 0.1
2018-Oct-27 23:00N 33°21' W 118°19'0 0.0
2018-Oct-27 22:30N 33°21' W 118°19'0 0.1
2018-Oct-27 22:00N 33°21' W 118°19'1 2.5
2018-Oct-27 21:30N 33°20' W 118°18'4 8.3
2018-Oct-27 21:03N 33°17' W 118°21'111.4
2018-Oct-27 21:00N 33°17' W 118°21'510.7
2018-Oct-27 20:30N 33°19' W 118°28'4 0.6
2018-Oct-27 13:38N 33°23' W 118°29'0 2.0
2018-Oct-27 13:23N 33°23' W 118°30'2 6.5
2018-Oct-27 13:01N 33°22' W 118°32'0 6.5
2018-Oct-27 13:00N 33°22' W 118°33'2 4.9
2018-Oct-27 12:30N 33°24' W 118°35'3 6.5
2018-Oct-27 12:03N 33°26' W 118°37'0 7.8
2018-Oct-27 12:00N 33°26' W 118°37'4 7.7
2018-Oct-27 11:30N 33°28' W 118°41'4 8.3
2018-Oct-27 11:03N 33°30' W 118°45'0 8.7
2018-Oct-27 11:00N 33°31' W 118°45'4 8.7
2018-Oct-27 10:30N 33°34' W 118°49'4 8.7
2018-Oct-27 10:03N 33°37' W 118°51'0 9.1
2018-Oct-27 10:00N 33°38' W 118°51'4 8.3
2018-Oct-27 09:30N 33°42' W 118°52'4 8.8
2018-Oct-27 09:03N 33°43' W 118°57'0 8.5
2018-Oct-27 09:00N 33°43' W 118°57'4 8.6
2018-Oct-27 08:30N 33°45' W 119°02'4 8.7
2018-Oct-27 08:03N 33°46' W 119°07'0 8.5
2018-Oct-27 08:00N 33°46' W 119°07'4 8.5
2018-Oct-27 07:30N 33°48' W 119°12'4 8.3
2018-Oct-27 07:03N 33°49' W 119°16'0 8.5
2018-Oct-27 07:00N 33°49' W 119°17'4 8.4
2018-Oct-27 06:30N 33°50' W 119°21'4 8.2
2018-Oct-27 06:03N 33°52' W 119°26'0 7.5
2018-Oct-27 06:00N 33°52' W 119°26'4 8.0
2018-Oct-27 05:30N 33°53' W 119°31'1 1.2
2018-Oct-27 05:04N 33°53' W 119°30'0 7.7
2018-Oct-27 05:00N 33°52' W 119°30'4 8.2
2018-Oct-27 04:30N 33°51' W 119°25'4 7.8
2018-Oct-27 04:03N 33°49' W 119°21'0 6.6
2018-Oct-27 04:00N 33°49' W 119°21'4 8.0
2018-Oct-27 03:30N 33°47' W 119°17'1 2.3
2018-Oct-27 03:03N 33°47' W 119°16'0 8.4
2018-Oct-27 03:00N 33°47' W 119°16'4 8.1
2018-Oct-27 02:30N 33°48' W 119°21'3 7.7
2018-Oct-27 02:03N 33°49' W 119°25'0 7.4
2018-Oct-27 02:00N 33°49' W 119°25'4 8.0
2018-Oct-27 01:30N 33°51' W 119°30'4 8.4
2018-Oct-27 01:03N 33°52' W 119°34'0 8.7
2018-Oct-27 01:00N 33°52' W 119°35'4 8.6
2018-Oct-27 00:30N 33°53' W 119°39'4 8.3
2018-Oct-27 00:03N 33°54' W 119°44'0 7.6
2018-Oct-27 00:00N 33°54' W 119°44'4 8.2
2018-Oct-26 23:30N 33°55' W 119°49'4 8.4
2018-Oct-26 23:03N 33°57' W 119°53'0 7.7
2018-Oct-26 23:00N 33°58' W 119°53'4 7.0
2018-Oct-26 22:30N 33°59' W 119°57'3 7.9
2018-Oct-26 22:04N 33°60' W 120°01'0 7.2
2018-Oct-26 22:00N 33°60' W 120°02'1 2.3
2018-Oct-26 21:27N 34°01' W 120°03'0 0.0
2018-Oct-26 20:39N 34°01' W 120°03'0 0.0
2018-Oct-26 20:09N 34°01' W 120°03'0 0.0
2018-Oct-26 19:57N 34°01' W 120°03'0 0.0
2018-Oct-26 19:27N 34°01' W 120°03'0 0.0
2018-Oct-26 19:03N 34°01' W 120°03'0 0.1
2018-Oct-26 18:57N 34°01' W 120°03'0 0.0
2018-Oct-26 18:27N 34°01' W 120°03'0 0.0
2018-Oct-26 18:03N 34°01' W 120°03'0 0.1
2018-Oct-26 17:57N 34°01' W 120°03'0 0.0
2018-Oct-26 17:30N 34°01' W 120°03'0 0.0
2018-Oct-26 17:03N 34°01' W 120°03'0 0.0
2018-Oct-26 16:57N 34°01' W 120°03'0 0.0
2018-Oct-26 16:30N 34°01' W 120°03'0 0.0
2018-Oct-26 16:03N 34°01' W 120°03'0 0.0
2018-Oct-26 15:57N 34°01' W 120°03'0 0.0
2018-Oct-26 15:30N 34°01' W 120°03'0 0.0
2018-Oct-26 15:03N 34°01' W 120°03'0 0.0
2018-Oct-26 15:00N 34°01' W 120°03'0 0.6
2018-Oct-26 14:29N 34°01' W 120°02'0 0.0
2018-Oct-26 13:53N 34°01' W 120°02'0 0.0
2018-Oct-26 13:26N 34°01' W 120°02'0 0.0
2018-Oct-26 13:02N 34°01' W 120°02'0 0.0
2018-Oct-26 12:59N 34°01' W 120°02'0 0.0
2018-Oct-26 12:29N 34°01' W 120°02'0 0.0
2018-Oct-26 12:02N 34°01' W 120°02'0 0.0
2018-Oct-26 11:59N 34°01' W 120°02'0 0.0
2018-Oct-26 11:29N 34°01' W 120°02'0 0.0
2018-Oct-26 11:02N 34°01' W 120°02'0 0.1
2018-Oct-26 10:59N 34°01' W 120°02'0 0.0
2018-Oct-26 10:29N 34°01' W 120°02'0 0.0
2018-Oct-26 09:59N 34°01' W 120°02'0 0.0
2018-Oct-26 09:23N 34°01' W 120°02'0 0.0
2018-Oct-26 08:56N 34°01' W 120°02'0 0.0
2018-Oct-26 08:23N 34°01' W 120°02'0 0.0
2018-Oct-26 07:59N 34°01' W 120°02'0 0.0
2018-Oct-26 07:26N 34°01' W 120°02'0 0.0
2018-Oct-26 06:59N 34°01' W 120°02'0 0.0
2018-Oct-26 06:29N 34°01' W 120°02'0 0.0
2018-Oct-26 06:02N 34°01' W 120°02'0 0.0
2018-Oct-26 05:56N 34°01' W 120°02'0 0.1
2018-Oct-26 05:18N 34°01' W 120°02'1 5.0
2018-Oct-26 05:03N 34°01' W 120°01'1 8.4
2018-Oct-26 04:58N 34°02' W 120°01'3 6.0
2018-Oct-26 04:29N 34°04' W 119°60'4 9.5
2018-Oct-26 04:03N 34°06' W 119°55'1 9.6
2018-Oct-26 03:58N 34°06' W 119°54'5 9.9
2018-Oct-26 03:30N 34°06' W 119°49'510.0
2018-Oct-26 03:03N 34°06' W 119°43'010.3
2018-Oct-26 03:00N 34°06' W 119°42'5 9.8
2018-Oct-26 02:31N 34°04' W 119°37'4 6.8
2018-Oct-26 02:00N 34°03' W 119°33'0 0.1
2018-Oct-26 01:30N 34°03' W 119°33'0 0.1
2018-Oct-26 00:54N 34°03' W 119°33'0 0.0
2018-Oct-26 00:30N 34°03' W 119°33'0 0.0
2018-Oct-26 00:03N 34°03' W 119°33'0 0.0
2018-Oct-25 23:54N 34°03' W 119°33'0 0.0
2018-Oct-25 23:24N 34°03' W 119°33'0 0.0
2018-Oct-25 23:00N 34°03' W 119°33'0 0.0
2018-Oct-25 22:27N 34°03' W 119°33'0 0.0
2018-Oct-25 22:00N 34°03' W 119°33'0 0.0
2018-Oct-25 21:30N 34°03' W 119°33'0 0.0
2018-Oct-25 21:00N 34°03' W 119°33'0 0.3
2018-Oct-25 20:30N 34°03' W 119°33'4 8.8
2018-Oct-25 20:03N 34°04' W 119°28'0 8.9
2018-Oct-25 20:00N 34°04' W 119°28'5 9.2
2018-Oct-25 19:31N 34°02' W 119°23'1 2.8
2018-Oct-25 19:02N 34°01' W 119°22'0 0.0
2018-Oct-25 18:56N 34°01' W 119°22'0 0.0
2018-Oct-25 18:29N 34°01' W 119°22'0 0.0
2018-Oct-25 17:59N 34°01' W 119°22'0 0.0
2018-Oct-25 17:29N 34°01' W 119°22'0 0.1
2018-Oct-25 17:02N 34°01' W 119°22'0 0.0
2018-Oct-25 16:44N 34°01' W 119°22'0 0.2
2018-Oct-25 16:29N 34°01' W 119°22'0 0.0
2018-Oct-25 16:02N 34°01' W 119°22'0 0.5
2018-Oct-25 15:56N 34°01' W 119°22'0 0.0
2018-Oct-25 15:26N 34°01' W 119°22'0 0.0
2018-Oct-25 14:59N 34°01' W 119°22'1 1.1
2018-Oct-25 14:30N 34°01' W 119°22'2 3.3
2018-Oct-25 14:00N 34°01' W 119°20'3 5.4
2018-Oct-25 13:30N 33°59' W 119°22'3 7.7
2018-Oct-25 13:03N 33°56' W 119°25'0 8.2
2018-Oct-25 13:00N 33°56' W 119°25'4 7.8
2018-Oct-25 12:29N 33°53' W 119°28'3 8.0
2018-Oct-25 12:03N 33°51' W 119°31'0 7.9
2018-Oct-25 12:00N 33°50' W 119°31'0 0.8
2018-Oct-25 11:30N 33°50' W 119°31'3 7.3
2018-Oct-25 11:03N 33°52' W 119°28'0 8.2
2018-Oct-25 11:00N 33°52' W 119°27'3 6.9
2018-Oct-25 10:30N 33°54' W 119°24'3 7.1
2018-Oct-25 10:03N 33°56' W 119°21'0 7.2
2018-Oct-25 10:00N 33°56' W 119°20'4 7.3
2018-Oct-25 09:30N 33°58' W 119°17'3 7.4
2018-Oct-25 09:03N 34°00' W 119°13'0 7.1
2018-Oct-25 09:00N 34°00' W 119°13'4 7.1
2018-Oct-25 08:30N 34°02' W 119°09'3 6.6
2018-Oct-25 08:03N 34°01' W 119°06'0 7.2
2018-Oct-25 08:00N 34°01' W 119°06'4 7.3
2018-Oct-25 07:30N 33°59' W 119°02'4 7.2
2018-Oct-25 07:01N 33°57' W 118°58'0 7.0
2018-Oct-25 07:00N 33°57' W 118°58'3 7.1
2018-Oct-25 06:30N 33°56' W 118°55'3 7.2
2018-Oct-25 06:03N 33°54' W 118°51'0 7.9
2018-Oct-25 06:00N 33°54' W 118°51'4 7.5
2018-Oct-25 05:30N 33°52' W 118°47'3 7.2
2018-Oct-25 05:03N 33°50' W 118°44'0 7.1
2018-Oct-25 05:00N 33°50' W 118°43'4 7.2
2018-Oct-25 04:30N 33°48' W 118°40'3 7.3
2018-Oct-25 04:03N 33°46' W 118°36'0 7.4
2018-Oct-25 04:00N 33°46' W 118°36'4 7.5
2018-Oct-25 03:30N 33°44' W 118°32'3 7.5
2018-Oct-25 03:03N 33°43' W 118°28'0 8.0
2018-Oct-25 03:00N 33°42' W 118°28'4 7.4
2018-Oct-25 02:30N 33°41' W 118°24'3 7.0
2018-Oct-25 02:03N 33°39' W 118°21'0 7.1
2018-Oct-25 02:00N 33°39' W 118°20'4 7.1
2018-Oct-25 01:30N 33°41' W 118°17'2 5.3
2018-Oct-25 01:03N 33°43' W 118°16'0 7.9
2018-Oct-25 01:00N 33°43' W 118°16'1 0.9
2018-Oct-25 00:28N 33°43' W 118°16'0 0.0
2018-Oct-25 00:01N 33°43' W 118°16'0 0.1
2018-Oct-24 23:58N 33°43' W 118°16'0 0.0
2018-Oct-24 23:25N 33°43' W 118°16'  
2018-Oct-22 18:35N 33°43' W 118°16'0 0.1
2018-Oct-22 18:29N 33°43' W 118°16'0 0.0
2018-Oct-22 18:02N 33°43' W 118°16'0 0.0
2018-Oct-22 17:59N 33°43' W 118°16'0 0.0
2018-Oct-22 17:29N 33°43' W 118°16'0 0.0
2018-Oct-22 17:02N 33°43' W 118°16'0 0.1
2018-Oct-22 16:59N 33°43' W 118°16'0 0.0
2018-Oct-22 16:29N 33°43' W 118°16'0 0.0
2018-Oct-22 16:02N 33°43' W 118°16'0 0.0
2018-Oct-22 15:59N 33°43' W 118°16'0 0.0
2018-Oct-22 15:29N 33°43' W 118°16'0 0.0
2018-Oct-22 14:59N 33°43' W 118°16'0 0.0
2018-Oct-22 14:29N 33°43' W 118°16'0 0.0
2018-Oct-22 13:29N 33°43' W 118°16'0 0.0
2018-Oct-22 13:02N 33°43' W 118°16'0 0.0
2018-Oct-22 12:59N 33°43' W 118°16'0 0.0
2018-Oct-22 12:29N 33°43' W 118°16'0 0.0
2018-Oct-22 12:02N 33°43' W 118°16'0 0.0
2018-Oct-22 11:59N 33°43' W 118°16'0 0.0
2018-Oct-22 11:29N 33°43' W 118°16'0 0.0
2018-Oct-22 10:59N 33°43' W 118°16'0 0.0
2018-Oct-22 10:29N 33°43' W 118°16'0 0.0
2018-Oct-22 10:02N 33°43' W 118°16'0 0.0
2018-Oct-22 09:59N 33°43' W 118°16'0 0.0
2018-Oct-22 09:29N 33°43' W 118°16'0 0.0
2018-Oct-22 09:02N 33°43' W 118°16'0 0.0
2018-Oct-22 08:59N 33°43' W 118°16'0 0.0
2018-Oct-22 08:29N 33°43' W 118°16'0 0.0
2018-Oct-22 08:02N 33°43' W 118°16'0 0.1
2018-Oct-22 07:59N 33°43' W 118°16'0 0.0
2018-Oct-22 07:29N 33°43' W 118°16'0 0.0
2018-Oct-22 07:02N 33°43' W 118°16'0 0.1
2018-Oct-22 06:59N 33°43' W 118°16'0 0.0
2018-Oct-22 06:29N 33°43' W 118°16'0 0.0
2018-Oct-22 06:02N 33°43' W 118°16'0 0.0
2018-Oct-22 05:59N 33°43' W 118°16'0 0.0
2018-Oct-22 05:29N 33°43' W 118°16'0 0.0
2018-Oct-22 05:02N 33°43' W 118°16'0 0.0
2018-Oct-22 04:59N 33°43' W 118°16'0 0.0
2018-Oct-22 04:29N 33°43' W 118°16'0 0.0
2018-Oct-22 04:02N 33°43' W 118°16'0 0.0
2018-Oct-22 03:59N 33°43' W 118°16'0 0.0
2018-Oct-22 03:29N 33°43' W 118°16'0 0.0
2018-Oct-22 03:02N 33°43' W 118°16'0 0.0
2018-Oct-22 02:59N 33°43' W 118°16'0 0.0
2018-Oct-22 02:29N 33°43' W 118°16'0 0.0
2018-Oct-22 01:59N 33°43' W 118°16'0 0.0
2018-Oct-22 01:29N 33°43' W 118°16'0 0.0
2018-Oct-22 01:02N 33°43' W 118°16'0 0.0
2018-Oct-22 00:59N 33°43' W 118°16'0 0.0
2018-Oct-22 00:29N 33°43' W 118°16'0 0.0
2018-Oct-22 00:02N 33°43' W 118°16'0 0.0
2018-Oct-21 23:59N 33°43' W 118°16'0 0.0
2018-Oct-21 23:29N 33°43' W 118°16'0 0.0
2018-Oct-21 23:02N 33°43' W 118°16'0 0.1
2018-Oct-21 22:59N 33°43' W 118°16'0 0.0
2018-Oct-21 22:29N 33°43' W 118°16'0 0.0
2018-Oct-21 22:02N 33°43' W 118°16'0 0.1
2018-Oct-21 21:56N 33°43' W 118°16'0 0.0
2018-Oct-21 21:02N 33°43' W 118°16'0 0.0
2018-Oct-21 20:29N 33°43' W 118°16'0 0.0
2018-Oct-21 20:02N 33°43' W 118°16'0 0.0
2018-Oct-21 19:59N 33°43' W 118°16'0 0.0
2018-Oct-21 19:29N 33°43' W 118°16'0 0.0
2018-Oct-21 19:02N 33°43' W 118°16'0 0.1
2018-Oct-21 18:59N 33°43' W 118°16'0 0.0
2018-Oct-21 18:29N 33°43' W 118°16'0 0.0
2018-Oct-21 18:02N 33°43' W 118°16'0 0.0
2018-Oct-21 17:59N 33°43' W 118°16'0 0.0
2018-Oct-21 17:29N 33°43' W 118°16'0 0.0
2018-Oct-21 17:02N 33°43' W 118°16'0 0.0
2018-Oct-21 16:59N 33°43' W 118°16'0 0.0
2018-Oct-21 16:29N 33°43' W 118°16'0 0.0
2018-Oct-21 16:02N 33°43' W 118°16'0 0.0
2018-Oct-21 15:59N 33°43' W 118°16'0 0.0
2018-Oct-21 15:29N 33°43' W 118°16'0 0.0
2018-Oct-21 15:02N 33°43' W 118°16'0 0.0
2018-Oct-21 14:59N 33°43' W 118°16'0 0.0
2018-Oct-21 14:29N 33°43' W 118°16'0 0.3
2018-Oct-21 14:00N 33°43' W 118°16'3 6.5
2018-Oct-21 13:31N 33°41' W 118°14'3 7.0
2018-Oct-21 13:04N 33°38' W 118°15'0 8.5
2018-Oct-21 13:01N 33°37' W 118°15'4 7.3
2018-Oct-21 12:31N 33°35' W 118°19'3 7.6
2018-Oct-21 12:04N 33°36' W 118°23'0 8.0
2018-Oct-21 12:01N 33°36' W 118°23'4 8.0
2018-Oct-21 11:30N 33°39' W 118°27'4 8.0
2018-Oct-21 11:03N 33°40' W 118°31'0 7.3
2018-Oct-21 11:01N 33°41' W 118°31'3 6.4
2018-Oct-21 10:30N 33°41' W 118°35'3 6.0
2018-Oct-21 10:04N 33°39' W 118°35'0 8.4
2018-Oct-21 10:01N 33°38' W 118°34'4 7.9
2018-Oct-21 09:31N 33°36' W 118°30'4 8.1
2018-Oct-21 09:04N 33°34' W 118°27'0 7.8
2018-Oct-21 09:01N 33°33' W 118°27'4 8.0
2018-Oct-21 08:31N 33°31' W 118°23'4 8.1
2018-Oct-21 08:04N 33°29' W 118°19'0 8.4
2018-Oct-21 08:01N 33°28' W 118°19'4 8.1
2018-Oct-21 07:31N 33°24' W 118°19'3 7.6
2018-Oct-21 07:03N 33°21' W 118°19'0 0.1
2018-Oct-21 07:01N 33°21' W 118°19'0 0.0
2018-Oct-21 06:22N 33°21' W 118°19'0 0.1
2018-Oct-21 06:01N 33°21' W 118°19'0 0.0
2018-Oct-21 05:58N 33°21' W 118°19'0 0.0
2018-Oct-21 05:28N 33°21' W 118°19'0 0.1
2018-Oct-21 05:01N 33°21' W 118°19'0 0.1
2018-Oct-21 04:58N 33°21' W 118°19'0 0.0
2018-Oct-21 04:25N 33°21' W 118°19'0 0.2
2018-Oct-21 04:01N 33°21' W 118°19'0 0.1
2018-Oct-21 03:55N 33°21' W 118°19'0 0.0
2018-Oct-21 03:25N 33°21' W 118°19'0 0.0
2018-Oct-21 03:01N 33°21' W 118°19'0 0.2
2018-Oct-21 02:55N 33°21' W 118°19'0 0.1
2018-Oct-21 02:28N 33°21' W 118°19'0 0.0
2018-Oct-21 01:58N 33°21' W 118°19'0 0.0
2018-Oct-21 01:28N 33°21' W 118°19'0 0.0
2018-Oct-21 00:58N 33°21' W 118°19'0 0.1
2018-Oct-21 00:16N 33°21' W 118°19'0 0.0
2018-Oct-20 23:58N 33°21' W 118°19'0 0.0
2018-Oct-20 23:28N 33°21' W 118°19'0 0.0
2018-Oct-20 22:58N 33°21' W 118°19'0 0.0
2018-Oct-20 22:22N 33°21' W 118°19'0 0.0
2018-Oct-20 22:01N 33°21' W 118°19'0 0.0
2018-Oct-20 22:00N 33°21' W 118°19'3 6.6
2018-Oct-20 21:30N 33°18' W 118°19'510.6
2018-Oct-20 21:03N 33°16' W 118°24'110.6
2018-Oct-20 20:59N 33°16' W 118°25'510.3
2018-Oct-20 20:30N 33°19' W 118°29'4 0.6
2018-Oct-20 13:21N 33°23' W 118°30'2 4.6
2018-Oct-20 12:52N 33°24' W 118°32'4 5.0
2018-Oct-20 12:10N 33°25' W 118°36'5 6.6
2018-Oct-20 11:28N 33°26' W 118°41'4 7.8
2018-Oct-20 10:58N 33°29' W 118°45'4 7.7
2018-Oct-20 10:30N 33°32' W 118°48'3 7.6
2018-Oct-20 10:03N 33°34' W 118°51'0 7.4
2018-Oct-20 10:00N 33°34' W 118°51'4 7.7
2018-Oct-20 09:30N 33°37' W 118°55'4 8.7
2018-Oct-20 09:03N 33°40' W 118°57'0 8.9
2018-Oct-20 09:00N 33°41' W 118°57'4 8.5
2018-Oct-20 08:30N 33°45' W 118°59'3 7.1
2018-Oct-20 08:03N 33°47' W 119°01'0 7.1
2018-Oct-20 08:00N 33°48' W 119°01'4 7.6
2018-Oct-20 07:30N 33°50' W 119°05'3 7.3
2018-Oct-20 07:03N 33°51' W 119°08'0 7.2
2018-Oct-20 07:00N 33°51' W 119°09'4 7.4
2018-Oct-20 06:30N 33°52' W 119°13'3 7.3
2018-Oct-20 06:03N 33°52' W 119°17'0 7.1
2018-Oct-20 06:00N 33°52' W 119°18'4 7.4
2018-Oct-20 05:30N 33°53' W 119°22'3 7.5
2018-Oct-20 05:03N 33°53' W 119°26'0 7.1
2018-Oct-20 05:00N 33°53' W 119°26'4 7.4
2018-Oct-20 04:30N 33°54' W 119°31'3 6.4
2018-Oct-20 04:03N 33°54' W 119°27'0 8.2
2018-Oct-20 04:00N 33°55' W 119°27'4 7.3
2018-Oct-20 03:27N 33°56' W 119°22'3 7.4
2018-Oct-20 03:03N 33°56' W 119°19'0 7.1
2018-Oct-20 03:00N 33°56' W 119°18'4 7.2
2018-Oct-20 02:30N 33°58' W 119°14'2 4.2
2018-Oct-20 02:03N 33°60' W 119°15'0 8.1
2018-Oct-20 02:00N 33°60' W 119°15'4 8.1
2018-Oct-20 01:30N 34°02' W 119°20'510.5
2018-Oct-20 01:03N 34°03' W 119°25'110.3
2018-Oct-20 01:00N 34°03' W 119°26'5 9.0
2018-Oct-20 00:30N 34°05' W 119°31'510.1
2018-Oct-20 00:01N 34°05' W 119°37'0 9.0
2018-Oct-20 00:00N 34°05' W 119°37'510.1
2018-Oct-19 23:30N 34°05' W 119°43'6 9.6
2018-Oct-19 22:52N 34°05' W 119°50'2 4.7
2018-Oct-19 22:31N 34°05' W 119°52'4 8.2
2018-Oct-19 22:03N 34°05' W 119°57'0 9.6
2018-Oct-19 22:00N 34°05' W 119°57'5 8.8
2018-Oct-19 21:25N 34°01' W 120°01'1 1.4
2018-Oct-19 20:35N 34°00' W 120°03'0 0.0
2018-Oct-19 20:26N 34°00' W 120°03'0 0.0
2018-Oct-19 19:05N 34°00' W 120°03'0 0.0
2018-Oct-19 18:53N 34°00' W 120°03'0 0.0
2018-Oct-19 18:05N 34°00' W 120°03'0 0.0
2018-Oct-19 17:44N 34°00' W 120°03'  

Dump ship's entire track history